Time;durP1;ratioP1;P1;durP2;ratioP2;P2;SDS_P1;SDS_P2;PMS_P1;PMS_P2;Temp;Humidity;BMP_temperature;BMP_pressure;BME280_temperature;BME280_humidity;BME280_pressure;Samples;Min_cycle;Max_cycle;Signal;HPM_P1;HPM_P2
2023/01/25 00:00:32;;;;;;;21.63;14.90;;;1.80;99.90;;;;;;4949886;29;20472;-72
2023/01/25 00:03:00;;;;;;;21.97;16.13;;;1.80;99.90;;;;;;4943451;29;20492;-72
2023/01/25 00:05:38;;;;;;;23.43;17.00;;;1.80;99.90;;;;;;4952766;29;20528;-72
2023/01/25 00:08:09;;;;;;;23.13;16.80;;;1.70;99.90;;;;;;4946475;29;20474;-72
2023/01/25 00:10:40;;;;;;;26.40;16.47;;;1.70;99.90;;;;;;4926098;29;20472;-73
2023/01/25 00:13:12;;;;;;;20.37;16.10;;;1.80;99.90;;;;;;4934499;29;20498;-72
2023/01/25 00:15:43;;;;;;;21.53;15.17;;;1.80;99.90;;;;;;4930362;29;20495;-73
2023/01/25 00:18:15;;;;;;;20.23;15.30;;;1.70;99.90;;;;;;4932036;29;20484;-72
2023/01/25 00:20:45;;;;;;;22.20;15.10;;;1.70;99.90;;;;;;4935658;29;20480;-72
2023/01/25 00:23:18;;;;;;;21.70;15.87;;;1.70;99.90;;;;;;4930278;29;20499;-72
2023/01/25 00:25:52;;;;;;;24.20;16.97;;;1.60;99.90;;;;;;4926818;29;20567;-73
2023/01/25 00:28:28;;;;;;;24.63;16.70;;;1.60;99.90;;;;;;4933169;29;20920;-73
2023/01/25 00:30:59;;;;;;;25.33;17.53;;;1.60;99.90;;;;;;4928067;29;20983;-73
2023/01/25 00:33:51;;;;;;;21.93;16.40;;;1.60;99.90;;;;;;4931042;29;20865;-73
2023/01/25 00:36:31;;;;;;;22.43;15.87;;;1.60;99.90;;;;;;4931056;29;21015;-73
2023/01/25 00:39:04;;;;;;;21.57;14.87;;;1.60;99.90;;;;;;4927587;29;20482;-73
2023/01/25 00:41:38;;;;;;;24.97;15.30;;;1.50;99.90;;;;;;4932282;29;20495;-73
2023/01/25 00:44:07;;;;;;;23.83;16.47;;;1.50;99.90;;;;;;4933038;29;20495;-72
2023/01/25 00:46:40;;;;;;;22.20;16.57;;;1.40;99.90;;;;;;4930232;29;20478;-73
2023/01/25 00:49:30;;;;;;;21.20;16.10;;;1.40;99.90;;;;;;4932138;29;20910;-73
2023/01/25 00:51:59;;;;;;;24.90;16.77;;;1.40;99.90;;;;;;4923277;29;20908;-73
2023/01/25 00:54:28;;;;;;;27.03;16.40;;;1.50;99.90;;;;;;4930230;29;20499;-72
2023/01/25 00:57:00;;;;;;;23.17;16.93;;;1.50;99.90;;;;;;4934975;29;20509;-73
2023/01/25 00:59:33;;;;;;;27.13;18.50;;;1.50;99.90;;;;;;4926485;29;20472;-72
2023/01/25 01:02:02;;;;;;;24.43;17.60;;;1.60;99.90;;;;;;4924534;29;21078;-72
2023/01/25 01:04:31;;;;;;;25.40;17.77;;;1.50;99.90;;;;;;4933052;29;20974;-73
2023/01/25 01:07:01;;;;;;;25.30;17.30;;;1.50;99.90;;;;;;4930575;29;20513;-73
2023/01/25 01:09:34;;;;;;;24.63;16.90;;;1.50;99.90;;;;;;4933317;29;20566;-73
2023/01/25 01:12:04;;;;;;;27.53;17.63;;;1.50;99.90;;;;;;4929691;29;20849;-73
2023/01/25 01:14:37;;;;;;;24.67;16.50;;;1.50;99.90;;;;;;4933391;29;20499;-73
2023/01/25 01:17:06;;;;;;;21.50;16.47;;;1.50;99.90;;;;;;4936175;29;20476;-73
2023/01/25 01:19:37;;;;;;;25.50;17.23;;;1.50;99.90;;;;;;4932723;29;20562;-73
2023/01/25 01:22:09;;;;;;;23.90;17.40;;;1.40;99.90;;;;;;4931410;29;20546;-73
2023/01/25 01:24:37;;;;;;;24.50;16.80;;;1.40;99.90;;;;;;4935757;29;20495;-73
2023/01/25 01:27:07;;;;;;;25.53;16.90;;;1.40;99.90;;;;;;4934952;29;20511;-72
2023/01/25 01:29:37;;;;;;;24.37;16.37;;;1.40;99.90;;;;;;4925242;29;20474;-73
2023/01/25 01:32:05;;;;;;;25.93;18.10;;;1.40;99.90;;;;;;4922710;29;20504;-73
2023/01/25 01:34:33;;;;;;;22.87;16.37;;;1.40;99.90;;;;;;4919704;29;20500;-73
2023/01/25 01:37:07;;;;;;;24.00;16.07;;;1.40;99.90;;;;;;4925458;29;21263;-73
2023/01/25 01:39:38;;;;;;;25.63;16.53;;;1.40;99.90;;;;;;4925336;29;20472;-72
2023/01/25 01:42:06;;;;;;;23.93;16.83;;;1.40;99.90;;;;;;4926904;29;20511;-73
2023/01/25 01:44:53;;;;;;;24.43;16.43;;;1.40;99.90;;;;;;4924696;29;20607;-72
2023/01/25 01:47:30;;;;;;;24.53;16.63;;;1.40;99.90;;;;;;4920158;29;20968;-73
2023/01/25 01:50:07;;;;;;;21.93;16.43;;;1.40;99.90;;;;;;4927227;29;21419;-73
2023/01/25 01:52:37;;;;;;;24.57;15.77;;;1.30;99.90;;;;;;4915693;29;20508;-73
2023/01/25 01:55:10;;;;;;;25.77;16.27;;;1.30;99.90;;;;;;4927946;29;20496;-73
2023/01/25 01:57:46;;;;;;;23.33;16.27;;;1.20;99.90;;;;;;4931526;29;20892;-73
2023/01/25 02:00:23;;;;;;;22.90;15.10;;;1.20;99.90;;;;;;4931612;29;20479;-73
2023/01/25 02:02:54;;;;;;;21.27;15.17;;;1.20;99.90;;;;;;4928060;29;20526;-72
2023/01/25 02:05:30;;;;;;;21.50;15.50;;;1.10;99.90;;;;;;4927588;29;20504;-73
2023/01/25 02:07:59;;;;;;;23.73;16.10;;;1.10;99.90;;;;;;4924626;29;20472;-73
2023/01/25 02:10:31;;;;;;;24.23;16.60;;;1.10;99.90;;;;;;4933473;29;20488;-73
2023/01/25 02:12:59;;;;;;;19.10;13.60;;;1.10;99.90;;;;;;4927934;29;20500;-73
2023/01/25 02:15:45;;;;;;;21.10;14.93;;;1.10;99.90;;;;;;4931958;29;20500;-73
2023/01/25 02:18:17;;;;;;;22.03;15.10;;;1.00;99.90;;;;;;4930045;29;20499;-73
2023/01/25 02:20:46;;;;;;;20.30;14.23;;;1.00;99.90;;;;;;4929590;29;20484;-73
2023/01/25 02:23:25;;;;;;;20.00;14.70;;;1.10;99.90;;;;;;4922284;29;20484;-73
2023/01/25 02:26:00;;;;;;;20.60;14.20;;;1.10;99.90;;;;;;4930387;29;21043;-73
2023/01/25 02:28:32;;;;;;;19.53;13.60;;;1.10;99.90;;;;;;4928836;29;20725;-73
2023/01/25 02:31:02;;;;;;;19.07;13.00;;;1.10;99.90;;;;;;4924579;29;20479;-73
2023/01/25 02:33:34;;;;;;;21.50;13.60;;;1.10;99.90;;;;;;4928840;29;20487;-72
2023/01/25 02:36:21;;;;;;;17.30;12.77;;;1.00;99.90;;;;;;4927628;29;20527;-72
2023/01/25 02:39:00;;;;;;;19.00;13.17;;;1.00;99.90;;;;;;4929519;29;20476;-72
2023/01/25 02:41:33;;;;;;;17.60;12.00;;;1.00;99.90;;;;;;4927445;29;20499;-73
2023/01/25 02:44:06;;;;;;;17.97;12.67;;;0.90;99.90;;;;;;4927148;29;20484;-73
2023/01/25 02:46:37;;;;;;;18.97;13.80;;;0.90;99.90;;;;;;4932698;29;20482;-73
2023/01/25 02:49:14;;;;;;;20.10;14.40;;;0.90;99.90;;;;;;4932316;29;20508;-73
2023/01/25 02:51:48;;;;;;;18.07;13.10;;;0.90;99.90;;;;;;4920207;29;20491;-72
2023/01/25 02:54:24;;;;;;;18.30;13.57;;;0.90;99.90;;;;;;4929563;29;20499;-73
2023/01/25 02:57:00;;;;;;;19.93;13.67;;;0.90;99.90;;;;;;4916993;29;21004;-73
2023/01/25 02:59:28;;;;;;;17.97;12.57;;;0.90;99.90;;;;;;4925720;29;20960;-73
2023/01/25 03:02:04;;;;;;;20.30;13.43;;;0.90;99.90;;;;;;4923758;29;20483;-73
2023/01/25 03:04:36;;;;;;;18.37;12.60;;;0.90;99.90;;;;;;4928267;29;20510;-72
2023/01/25 03:07:08;;;;;;;19.20;13.10;;;1.00;99.90;;;;;;4927375;29;20522;-73
2023/01/25 03:09:42;;;;;;;22.03;13.03;;;0.90;99.90;;;;;;4931229;29;20496;-73
2023/01/25 03:12:19;;;;;;;19.67;13.47;;;0.90;99.90;;;;;;4928539;29;20487;-73
2023/01/25 03:14:51;;;;;;;17.50;12.33;;;0.90;99.90;;;;;;4922261;29;20507;-73
2023/01/25 03:17:21;;;;;;;18.50;12.07;;;0.90;99.90;;;;;;4924579;29;20503;-73
2023/01/25 03:19:53;;;;;;;18.33;13.13;;;0.90;99.90;;;;;;4922381;29;20827;-73
2023/01/25 03:22:29;;;;;;;18.43;12.00;;;0.90;99.90;;;;;;4922281;29;20507;-73
2023/01/25 03:24:58;;;;;;;18.20;11.80;;;0.80;99.90;;;;;;4922868;29;20488;-73
2023/01/25 03:27:29;;;;;;;18.83;12.23;;;0.80;99.90;;;;;;4924727;29;20472;-73
2023/01/25 03:30:03;;;;;;;17.40;11.93;;;0.80;99.90;;;;;;4930493;29;20528;-73
2023/01/25 03:32:34;;;;;;;18.23;12.50;;;0.80;99.90;;;;;;4924141;29;20550;-72
2023/01/25 03:35:09;;;;;;;19.00;12.47;;;0.70;99.90;;;;;;4927064;29;20548;-73
2023/01/25 03:37:40;;;;;;;18.57;12.10;;;0.70;99.90;;;;;;4921887;29;20589;-72
2023/01/25 03:59:17;;;;;;;16.93;10.53;;;0.80;99.90;;;;;;4931874;29;20548;-73
2023/01/25 04:01:48;;;;;;;20.23;12.67;;;0.80;99.90;;;;;;4921581;29;20864;-72
2023/01/25 04:04:18;;;;;;;19.10;12.27;;;0.70;99.90;;;;;;4931268;29;20504;-73
2023/01/25 04:06:49;;;;;;;18.57;12.43;;;0.70;99.90;;;;;;4947508;28;20472;-72
2023/01/25 04:09:17;;;;;;;25.77;13.17;;;0.60;99.90;;;;;;4949077;28;20478;-72
2023/01/25 04:11:59;;;;;;;21.43;12.60;;;0.60;99.90;;;;;;4943780;28;20468;-73
2023/01/25 04:14:35;;;;;;;21.70;14.00;;;0.60;99.90;;;;;;4947100;29;20499;-73
2023/01/25 04:17:13;;;;;;;21.40;13.10;;;0.60;99.90;;;;;;4931441;29;21004;-72
2023/01/25 04:19:41;;;;;;;23.57;13.17;;;0.60;99.90;;;;;;4928807;29;20480;-73
2023/01/25 04:22:12;;;;;;;24.67;14.70;;;0.50;99.90;;;;;;4925707;29;20488;-73
2023/01/25 04:24:41;;;;;;;21.63;12.50;;;0.60;99.90;;;;;;4932076;29;20507;-73
2023/01/25 04:27:12;;;;;;;21.23;13.60;;;0.60;99.90;;;;;;4923681;29;20475;-73
2023/01/25 04:29:41;;;;;;;22.73;14.27;;;0.60;99.90;;;;;;4925090;29;20486;-73
2023/01/25 04:32:11;;;;;;;19.20;13.73;;;0.50;99.90;;;;;;4929823;29;20515;-73
2023/01/25 04:34:45;;;;;;;20.73;13.70;;;0.50;99.90;;;;;;4931351;29;20496;-73
2023/01/25 04:37:20;;;;;;;23.50;14.93;;;0.50;99.90;;;;;;4926801;29;20507;-73
2023/01/25 04:39:50;;;;;;;25.87;14.83;;;0.60;99.90;;;;;;4928491;29;20488;-73
2023/01/25 04:42:18;;;;;;;25.90;15.13;;;0.60;99.90;;;;;;4932835;29;20496;-73
2023/01/25 04:44:49;;;;;;;24.37;14.43;;;0.60;99.90;;;;;;4934271;29;20531;-73
2023/01/25 04:47:17;;;;;;;23.53;14.90;;;0.60;99.90;;;;;;4926919;29;20471;-73
2023/01/25 04:49:52;;;;;;;24.23;15.67;;;0.60;99.90;;;;;;4930895;29;20476;-73
2023/01/25 04:52:20;;;;;;;23.23;15.33;;;0.60;99.90;;;;;;4933707;29;20494;-73
2023/01/25 04:54:48;;;;;;;22.53;14.07;;;0.60;99.90;;;;;;4934204;29;21241;-73
2023/01/25 04:57:19;;;;;;;26.10;15.23;;;0.60;99.90;;;;;;4935301;29;20491;-73
2023/01/25 04:59:54;;;;;;;29.10;15.70;;;0.70;99.90;;;;;;4929685;29;20476;-73
2023/01/25 05:02:22;;;;;;;21.73;14.83;;;0.60;99.90;;;;;;4933467;29;20486;-73
2023/01/25 05:04:54;;;;;;;20.57;14.70;;;0.60;99.90;;;;;;4963310;23;20501;-85
2023/01/25 05:07:25;;;;;;;25.40;15.70;;;0.50;99.90;;;;;;4972479;28;20478;-86
2023/01/25 05:09:56;;;;;;;23.93;15.73;;;0.50;99.90;;;;;;4974015;28;20455;-85
2023/01/25 05:12:27;;;;;;;23.10;15.40;;;0.50;99.90;;;;;;4965093;28;20483;-84
2023/01/25 05:14:59;;;;;;;21.50;13.80;;;0.50;99.90;;;;;;4960457;28;20508;-86
2023/01/25 05:17:27;;;;;;;23.83;15.60;;;0.50;99.90;;;;;;4954551;28;20499;-87
2023/01/25 05:19:55;;;;;;;21.87;15.70;;;0.60;99.90;;;;;;4952424;28;20460;-85
2023/01/25 05:22:24;;;;;;;20.70;14.27;;;0.60;99.90;;;;;;4956857;28;20486;-85
2023/01/25 05:24:51;;;;;;;21.47;14.93;;;0.60;99.90;;;;;;4955319;28;20468;-86
2023/01/25 05:27:22;;;;;;;21.17;14.60;;;0.60;99.90;;;;;;4954570;28;20449;-86
2023/01/25 05:29:54;;;;;;;20.83;14.70;;;0.50;99.90;;;;;;4950890;28;20551;-87
2023/01/25 05:32:25;;;;;;;19.83;13.23;;;0.50;99.90;;;;;;4951383;28;20482;-86
2023/01/25 05:34:55;;;;;;;18.60;14.67;;;0.50;99.90;;;;;;4951496;28;20472;-85
2023/01/25 05:37:30;;;;;;;18.43;13.63;;;0.60;99.90;;;;;;4952359;28;20464;-86
2023/01/25 05:39:59;;;;;;;19.53;15.03;;;0.50;99.90;;;;;;4953897;28;20447;-87
2023/01/25 05:42:27;;;;;;;19.30;15.10;;;0.50;99.90;;;;;;4936789;28;20492;-84
2023/01/25 05:44:57;;;;;;;19.77;13.80;;;0.50;99.90;;;;;;4932286;28;20619;-86
2023/01/25 05:47:29;;;;;;;18.50;14.27;;;0.50;99.90;;;;;;4934550;28;20456;-86
2023/01/25 05:49:57;;;;;;;21.50;15.30;;;0.60;99.90;;;;;;4934035;28;20477;-84
2023/01/25 05:52:30;;;;;;;21.10;15.67;;;0.60;99.90;;;;;;4940401;28;20476;-86
2023/01/25 05:54:59;;;;;;;20.10;14.90;;;0.50;99.90;;;;;;4944349;28;20508;-86
2023/01/25 05:57:30;;;;;;;21.13;15.90;;;0.60;99.90;;;;;;4954635;28;20479;-81
2023/01/25 05:59:58;;;;;;;21.43;15.40;;;0.50;99.90;;;;;;4944434;28;20480;-84
2023/01/25 06:02:42;;;;;;;21.70;15.70;;;0.50;99.90;;;;;;4948590;28;20494;-85
2023/01/25 06:05:14;;;;;;;25.87;17.20;;;0.50;99.90;;;;;;4949692;28;20496;-84
2023/01/25 06:07:58;;;;;;;22.30;16.03;;;0.50;99.90;;;;;;4952756;28;20464;-84
2023/01/25 06:10:28;;;;;;;23.00;16.87;;;0.50;99.90;;;;;;4951477;28;20460;-84
2023/01/25 06:12:58;;;;;;;20.93;14.60;;;0.40;99.90;;;;;;4950557;28;20477;-82
2023/01/25 06:15:29;;;;;;;20.40;15.80;;;0.40;99.90;;;;;;4945662;28;20483;-85
2023/01/25 06:18:01;;;;;;;19.97;14.30;;;0.40;99.90;;;;;;4947108;28;20486;-86
2023/01/25 06:20:40;;;;;;;21.37;15.50;;;0.40;99.90;;;;;;4948650;28;20458;-84
2023/01/25 06:23:13;;;;;;;21.10;15.63;;;0.50;99.90;;;;;;4943086;28;20487;-84
2023/01/25 06:25:45;;;;;;;24.30;16.00;;;0.50;99.90;;;;;;4954537;28;20472;-84
2023/01/25 06:28:19;;;;;;;22.23;15.43;;;0.40;99.90;;;;;;4953761;28;20497;-84
2023/01/25 06:30:51;;;;;;;23.17;16.47;;;0.40;99.90;;;;;;4950879;28;20484;-86
2023/01/25 06:33:21;;;;;;;21.20;15.37;;;0.40;99.90;;;;;;4951243;28;20472;-85
2023/01/25 06:35:51;;;;;;;20.07;15.00;;;0.40;99.90;;;;;;4957669;28;20476;-85
2023/01/25 06:38:21;;;;;;;22.93;15.00;;;0.40;99.90;;;;;;4948033;28;20480;-85
2023/01/25 06:41:00;;;;;;;20.10;14.73;;;0.40;99.90;;;;;;4953149;28;20452;-84
2023/01/25 06:43:36;;;;;;;20.13;14.60;;;0.40;99.90;;;;;;4955987;28;20452;-83
2023/01/25 06:46:15;;;;;;;20.83;14.77;;;0.40;99.90;;;;;;4951360;28;20567;-81
2023/01/25 06:48:44;;;;;;;18.73;13.50;;;0.40;99.90;;;;;;4956256;28;20472;-80
2023/01/25 06:51:16;;;;;;;20.33;14.30;;;0.40;99.90;;;;;;4955176;28;20514;-83
2023/01/25 06:53:47;;;;;;;20.57;14.87;;;0.40;99.90;;;;;;4951581;28;20448;-82
2023/01/25 06:56:21;;;;;;;18.30;13.70;;;0.40;99.90;;;;;;4953321;28;20475;-85
2023/01/25 06:58:53;;;;;;;20.10;14.37;;;0.40;99.90;;;;;;4948291;28;20563;-82
2023/01/25 07:01:29;;;;;;;21.23;14.23;;;0.40;99.90;;;;;;4949824;28;20483;-84
2023/01/25 07:04:01;;;;;;;20.93;14.10;;;0.40;99.90;;;;;;4950586;28;20459;-84
2023/01/25 07:06:36;;;;;;;18.20;13.83;;;0.40;99.90;;;;;;4954702;28;20452;-82
2023/01/25 07:09:05;;;;;;;18.00;13.30;;;0.30;99.90;;;;;;4953352;28;20484;-85
2023/01/25 07:11:36;;;;;;;20.70;13.50;;;0.40;99.90;;;;;;4949738;28;20463;-84
2023/01/25 07:14:07;;;;;;;18.17;14.00;;;0.40;99.90;;;;;;4951815;28;20448;-83
2023/01/25 07:16:44;;;;;;;19.03;14.37;;;0.40;99.90;;;;;;4949669;28;20471;-83
2023/01/25 07:19:20;;;;;;;20.13;13.07;;;0.40;99.90;;;;;;4950228;28;20515;-83
2023/01/25 07:21:50;;;;;;;20.80;14.23;;;0.40;99.90;;;;;;4945604;28;20478;-82
2023/01/25 07:24:25;;;;;;;19.97;13.73;;;0.30;99.90;;;;;;4955192;28;20488;-85
2023/01/25 07:26:56;;;;;;;20.20;13.63;;;0.30;99.90;;;;;;4947498;28;20624;-83
2023/01/25 07:29:29;;;;;;;18.00;13.17;;;0.30;99.90;;;;;;4951181;28;20468;-84
2023/01/25 07:31:58;;;;;;;21.80;14.07;;;0.30;99.90;;;;;;4944069;28;20500;-81
2023/01/25 07:34:32;;;;;;;21.13;13.10;;;0.30;99.90;;;;;;4927776;28;20835;-85
2023/01/25 07:37:12;;;;;;;19.90;13.57;;;0.20;99.90;;;;;;4944776;28;20467;-82
2023/01/25 07:39:46;;;;;;;19.30;13.97;;;0.30;99.90;;;;;;4936951;28;20480;-84
2023/01/25 07:42:15;;;;;;;22.70;14.37;;;0.30;99.90;;;;;;4932456;28;20493;-85
2023/01/25 07:44:47;;;;;;;20.40;13.70;;;0.30;99.90;;;;;;4934834;28;20483;-85
2023/01/25 07:47:15;;;;;;;19.37;13.60;;;0.30;99.90;;;;;;4934137;28;20464;-83
2023/01/25 07:50:07;;;;;;;19.87;13.97;;;0.30;99.90;;;;;;4933967;28;20481;-85
2023/01/25 07:52:35;;;;;;;18.63;12.83;;;0.30;99.90;;;;;;4926436;28;20608;-84
2023/01/25 07:55:12;;;;;;;19.90;13.60;;;0.30;99.90;;;;;;4936012;28;20493;-83
2023/01/25 07:57:43;;;;;;;21.20;14.67;;;0.30;99.90;;;;;;4933634;28;20476;-82
2023/01/25 08:00:15;;;;;;;21.47;15.10;;;0.30;99.90;;;;;;4933396;28;20520;-85
2023/01/25 08:02:51;;;;;;;21.00;14.93;;;0.30;99.90;;;;;;4933447;28;20479;-84
2023/01/25 08:05:27;;;;;;;20.27;13.87;;;0.40;99.90;;;;;;4937779;28;20560;-82
2023/01/25 08:07:57;;;;;;;19.73;13.87;;;0.30;99.90;;;;;;4931868;28;20536;-86
2023/01/25 08:10:32;;;;;;;23.50;16.47;;;0.30;99.90;;;;;;4932500;28;20467;-86
2023/01/25 08:13:00;;;;;;;23.13;16.23;;;0.30;99.90;;;;;;4936758;28;20468;-81
2023/01/25 08:15:32;;;;;;;20.50;14.97;;;0.30;99.90;;;;;;4939668;28;20481;-81
2023/01/25 08:18:02;;;;;;;21.17;14.00;;;0.30;99.90;;;;;;4937377;28;20489;-80
2023/01/25 08:20:38;;;;;;;20.83;14.73;;;0.30;99.90;;;;;;4934973;28;20463;-86
2023/01/25 08:23:13;;;;;;;20.83;14.87;;;0.30;99.90;;;;;;4934839;28;20488;-83
2023/01/25 08:25:47;;;;;;;23.87;15.27;;;0.30;99.90;;;;;;4937528;28;20464;-85
2023/01/25 08:28:19;;;;;;;22.20;15.13;;;0.30;99.90;;;;;;4931096;28;20476;-84
2023/01/25 08:30:48;;;;;;;20.80;15.50;;;0.30;99.90;;;;;;4935477;28;20468;-83
2023/01/25 08:33:27;;;;;;;21.20;15.10;;;0.30;99.90;;;;;;4951873;28;20463;-80
2023/01/25 08:36:00;;;;;;;24.67;16.00;;;0.30;99.90;;;;;;4949639;28;20472;-83
2023/01/25 08:38:31;;;;;;;24.20;17.33;;;0.20;99.90;;;;;;4958510;28;20471;-82
2023/01/25 08:41:07;;;;;;;20.80;15.93;;;0.30;99.90;;;;;;4950296;28;20452;-82
2023/01/25 08:43:40;;;;;;;23.00;15.97;;;0.30;99.90;;;;;;4953081;28;20483;-83
2023/01/25 08:46:13;;;;;;;23.00;15.90;;;0.20;99.90;;;;;;4950137;28;20562;-83
2023/01/25 08:48:42;;;;;;;21.43;15.73;;;0.30;99.90;;;;;;4959517;28;20464;-84
2023/01/25 08:51:15;;;;;;;22.23;15.40;;;0.30;99.90;;;;;;4961031;28;20498;-85
2023/01/25 08:53:51;;;;;;;21.20;14.50;;;0.30;99.90;;;;;;4955131;28;20480;-85
2023/01/25 08:56:20;;;;;;;26.53;15.67;;;0.30;99.90;;;;;;4950963;28;21588;-83
2023/01/25 08:58:54;;;;;;;24.13;15.93;;;0.30;99.90;;;;;;4957744;28;20497;-85
2023/01/25 09:01:24;;;;;;;21.40;14.60;;;0.30;99.90;;;;;;4954689;28;20484;-83
2023/01/25 21:28:15;;;;;;;47.57;23.10;;;-0.20;99.90;;;;;;6126075;22;21716;31
2023/01/25 21:30:45;;;;;;;44.93;23.57;;;-0.20;99.90;;;;;;4991937;28;20439;-93
2023/01/25 21:33:14;;;;;;;47.73;24.50;;;-0.20;99.90;;;;;;4992402;28;20497;-95
2023/01/25 21:35:42;;;;;;;49.40;25.20;;;-0.10;99.90;;;;;;4998920;28;20462;-96
2023/01/25 21:38:11;;;;;;;44.73;23.77;;;-0.10;99.90;;;;;;4990287;28;20482;-94
2023/01/25 21:40:39;;;;;;;39.50;21.63;;;-0.10;99.90;;;;;;4969416;28;20527;-96
2023/01/25 21:43:09;;;;;;;46.83;24.43;;;-0.10;99.90;;;;;;4978974;28;20475;-95
2023/01/25 21:53:59;;;;;;;43.70;22.80;;;0.00;99.90;;;;;;4977756;28;20448;-94
2023/01/25 21:56:28;;;;;;;45.83;23.77;;;0.00;99.90;;;;;;4978333;28;20514;-94
2023/01/25 23:41:13;;;;;;;50.00;27.40;;;-0.20;99.90;;;;;;4967312;28;20498;-94
2023/01/25 23:43:43;;;;;;;53.53;28.27;;;-0.20;99.90;;;;;;4976606;28;20546;-95
2023/01/25 23:46:14;;;;;;;51.10;25.40;;;-0.20;99.90;;;;;;4967434;28;20539;-95
2023/01/25 23:48:46;;;;;;;57.37;27.50;;;-0.20;99.90;;;;;;4979330;28;20550;-95
2023/01/25 23:51:21;;;;;;;52.30;28.23;;;-0.20;99.90;;;;;;4972925;28;20470;-94
2023/01/25 23:54:03;;;;;;;49.57;26.53;;;-0.20;99.90;;;;;;4978965;28;20454;-94
2023/01/25 23:56:47;;;;;;;50.40;27.10;;;-0.20;99.90;;;;;;4973565;28;20483;-94
2023/01/25 23:59:15;;;;;;;58.00;26.13;;;-0.20;99.90;;;;;;4980201;28;20479;-94
